createdAt,value
2023-10-07T00:01:00.905Z,57.87
2023-10-07T00:03:27.767Z,57.79
2023-10-07T00:06:01.604Z,58.29
2023-10-07T00:08:29.436Z,57.69
2023-10-07T00:11:00.024Z,58.10
2023-10-07T00:13:35.601Z,58.76
2023-10-07T00:16:02.305Z,59.07
2023-10-07T00:18:29.317Z,58.74
2023-10-07T00:20:56.765Z,58.94
2023-10-07T00:23:27.407Z,58.30
2023-10-07T00:25:56.127Z,58.38
2023-10-07T00:28:33.821Z,57.75
2023-10-07T00:31:04.693Z,58.07
2023-10-07T00:33:38.944Z,58.97
2023-10-07T00:36:06.833Z,59.80
2023-10-07T00:38:39.093Z,59.90
2023-10-07T00:41:05.852Z,59.73
2023-10-07T00:43:32.587Z,58.98
2023-10-07T00:46:12.546Z,59.15
2023-10-07T00:48:44.351Z,58.99
2023-10-07T00:51:13.496Z,59.36
2023-10-07T00:53:46.437Z,59.39
2023-10-07T00:56:17.688Z,59.69
2023-10-07T00:58:48.149Z,60.34
2023-10-07T01:01:15.844Z,60.35
2023-10-07T01:03:57.187Z,59.85
2023-10-07T01:06:26.819Z,59.94
2023-10-07T01:09:08.993Z,60.38
2023-10-07T01:11:41.192Z,60.83
2023-10-07T01:14:13.144Z,59.82
2023-10-07T01:16:44.295Z,59.65
2023-10-07T01:19:13.372Z,60.10
2023-10-07T01:21:57.132Z,59.52
2023-10-07T01:24:45.173Z,59.32
2023-10-07T01:27:30.141Z,59.66
2023-10-07T01:30:08.291Z,59.98
2023-10-07T01:32:35.261Z,60.93
2023-10-07T01:35:12.463Z,60.63
2023-10-07T01:38:01.114Z,60.54
2023-10-07T01:40:44.700Z,61.02
2023-10-07T01:43:11.221Z,60.69
2023-10-07T01:45:40.966Z,60.32
2023-10-07T01:48:10.993Z,60.51
2023-10-07T01:50:41.064Z,60.19
2023-10-07T01:53:12.625Z,60.67
2023-10-07T01:55:44.236Z,60.52
2023-10-07T01:58:14.719Z,59.84
2023-10-07T02:00:45.797Z,59.24
2023-10-07T02:03:25.069Z,59.65
2023-10-07T02:05:53.268Z,59.14
2023-10-07T02:08:24.915Z,59.25
2023-10-07T02:10:59.871Z,59.36
2023-10-07T02:13:31.137Z,59.44
2023-10-07T02:15:58.092Z,60.29
2023-10-07T02:18:28.799Z,60.39
2023-10-07T02:21:14.928Z,60.00
2023-10-07T02:23:42.148Z,59.59
2023-10-07T02:26:16.123Z,59.34
2023-10-07T02:28:47.650Z,58.99
2023-10-07T02:31:18.582Z,58.68
2023-10-07T02:33:47.067Z,59.69
2023-10-07T02:36:28.996Z,59.12
2023-10-07T02:38:58.260Z,58.99
2023-10-07T02:41:32.250Z,59.21
2023-10-07T02:44:10.074Z,59.77
2023-10-07T02:46:37.207Z,59.89
2023-10-07T02:49:07.006Z,59.97
2023-10-07T02:51:35.083Z,60.65
2023-10-07T02:54:21.716Z,60.25
2023-10-07T02:56:56.645Z,59.99
2023-10-07T02:59:31.004Z,60.13
2023-10-07T03:02:14.515Z,59.73
2023-10-07T03:04:45.237Z,59.51
2023-10-07T03:07:15.440Z,60.58
2023-10-07T03:09:54.071Z,61.12
2023-10-07T03:12:29.012Z,61.44
2023-10-07T03:15:16.066Z,60.72
2023-10-07T03:17:47.337Z,61.93
2023-10-07T03:20:23.086Z,61.53
2023-10-07T03:23:08.291Z,61.26
2023-10-07T03:25:55.190Z,61.20
2023-10-07T03:28:52.906Z,62.53
2023-10-07T03:31:21.448Z,63.11
2023-10-07T03:33:59.475Z,61.84
2023-10-07T03:36:41.995Z,61.85
2023-10-07T03:39:10.586Z,63.17
2023-10-07T03:41:42.673Z,62.81
2023-10-07T03:44:09.502Z,62.49
2023-10-07T03:46:36.589Z,62.63
2023-10-07T03:49:07.813Z,62.55
2023-10-07T03:51:36.366Z,61.73
2023-10-07T03:54:05.261Z,61.89
2023-10-07T03:56:32.616Z,62.73
2023-10-07T03:59:01.234Z,61.86
2023-10-07T04:01:28.378Z,63.15
2023-10-07T04:04:00.669Z,63.10
2023-10-07T04:06:35.756Z,62.97
2023-10-07T04:09:13.089Z,62.91
2023-10-07T04:11:45.914Z,62.01
2023-10-07T04:14:28.870Z,62.04
2023-10-07T04:17:01.411Z,62.49
2023-10-07T04:19:28.468Z,62.87
2023-10-07T04:21:56.314Z,62.28
2023-10-07T04:24:29.887Z,62.52
2023-10-07T04:27:03.115Z,62.06
2023-10-07T04:29:31.114Z,62.52
2023-10-07T04:31:59.221Z,62.54
2023-10-07T04:34:34.445Z,64.24
2023-10-07T04:37:03.727Z,63.48
2023-10-07T04:40:00.793Z,63.84
2023-10-07T04:42:48.051Z,64.48
2023-10-07T04:45:37.844Z,64.27
2023-10-07T04:48:25.678Z,64.25
2023-10-07T04:51:04.958Z,64.05
2023-10-07T04:53:41.677Z,63.52
2023-10-07T04:56:10.354Z,62.94
2023-10-07T04:58:41.799Z,63.26
2023-10-07T05:01:31.837Z,63.14
2023-10-07T05:03:59.928Z,62.84
2023-10-07T05:06:26.882Z,63.83
2023-10-07T05:08:54.239Z,64.49
2023-10-07T05:11:20.771Z,63.77
2023-10-07T05:13:48.318Z,63.68
2023-10-07T05:16:16.253Z,62.89
2023-10-07T05:18:43.397Z,63.57
2023-10-07T05:21:10.108Z,63.80
2023-10-07T05:23:38.200Z,63.76
2023-10-07T05:26:05.032Z,63.21
2023-10-07T05:28:34.824Z,64.24
2023-10-07T05:31:04.455Z,63.49
2023-10-07T05:33:35.394Z,63.62
2023-10-07T05:36:15.794Z,62.90
2023-10-07T05:38:45.539Z,63.79
2023-10-07T05:41:16.212Z,64.21
2023-10-07T05:43:45.831Z,64.60
2023-10-07T05:46:12.860Z,64.38
2023-10-07T05:48:41.227Z,65.52
2023-10-07T05:51:09.647Z,65.62
2023-10-07T05:53:39.957Z,65.47
2023-10-07T05:56:07.865Z,63.98
2023-10-07T05:58:38.698Z,64.50
2023-10-07T06:01:06.570Z,64.13
2023-10-07T06:03:33.941Z,64.34
2023-10-07T06:06:01.059Z,64.39
2023-10-07T06:08:28.870Z,64.57
2023-10-07T06:10:58.953Z,64.84
2023-10-07T06:13:27.591Z,64.99
2023-10-07T06:15:57.254Z,64.75
2023-10-07T06:18:24.709Z,64.03
2023-10-07T06:20:52.707Z,63.66
2023-10-07T06:23:20.557Z,63.59
2023-10-07T06:25:52.363Z,62.86
2023-10-07T06:28:29.095Z,62.99
2023-10-07T06:31:19.078Z,60.99
2023-10-07T06:34:00.668Z,60.10
2023-10-07T06:36:28.640Z,59.20
2023-10-07T06:38:59.923Z,58.60
2023-10-07T06:41:33.123Z,57.91
2023-10-07T06:44:10.757Z,56.94
2023-10-07T06:46:45.396Z,56.21
2023-10-07T06:49:19.542Z,56.42
2023-10-07T06:51:54.492Z,55.79
2023-10-07T06:54:36.445Z,54.50
2023-10-07T06:57:05.828Z,53.22
2023-10-07T06:59:32.427Z,53.32
2023-10-07T07:02:07.123Z,53.41
2023-10-07T07:04:36.793Z,54.22
2023-10-07T07:07:13.034Z,53.15
2023-10-07T07:09:46.937Z,51.11
2023-10-07T07:12:18.580Z,50.70
2023-10-07T07:14:52.932Z,50.23
2023-10-07T07:17:31.754Z,49.60
2023-10-07T07:20:10.410Z,49.34
2023-10-07T07:22:38.618Z,48.58
2023-10-07T07:25:11.692Z,47.59
2023-10-07T07:27:39.208Z,47.28
2023-10-07T07:30:06.442Z,47.22
2023-10-07T07:32:34.496Z,46.03
2023-10-07T07:35:04.109Z,45.33
2023-10-07T07:37:34.270Z,45.99
2023-10-07T07:40:30.879Z,46.23
2023-10-07T07:42:57.547Z,44.86
2023-10-07T07:45:28.145Z,44.19
2023-10-07T07:47:55.297Z,44.16
2023-10-07T07:50:23.014Z,43.78
2023-10-07T07:52:50.867Z,42.62
2023-10-07T07:55:17.810Z,41.46
2023-10-07T07:57:45.438Z,40.36
2023-10-07T08:00:21.521Z,40.33
2023-10-07T08:02:50.989Z,39.44
2023-10-07T08:05:17.998Z,39.77
2023-10-07T08:07:45.350Z,41.11
2023-10-07T08:10:12.224Z,38.56
2023-10-07T08:12:38.767Z,37.87
2023-10-07T08:15:15.630Z,37.61
2023-10-07T08:17:46.230Z,37.81
2023-10-07T08:20:13.701Z,36.85
2023-10-07T08:22:46.665Z,36.59
2023-10-07T08:25:36.177Z,35.77
2023-10-07T08:28:19.431Z,36.30
2023-10-07T08:30:47.886Z,35.45
2023-10-07T08:33:16.253Z,35.03
2023-10-07T08:35:49.229Z,36.13
2023-10-07T08:38:23.946Z,36.04
2023-10-07T08:41:11.377Z,37.64
2023-10-07T08:44:02.292Z,35.55
2023-10-07T08:46:29.491Z,33.50
2023-10-07T08:49:00.214Z,32.48
2023-10-07T08:51:30.956Z,32.10
2023-10-07T08:54:06.543Z,31.77
2023-10-07T08:56:37.259Z,31.21
2023-10-07T08:59:14.224Z,32.36
2023-10-07T09:01:43.873Z,32.04
2023-10-07T09:04:10.759Z,31.17
2023-10-07T09:06:46.743Z,31.48
2023-10-07T09:09:13.664Z,31.46
2023-10-07T09:11:41.963Z,31.59
2023-10-07T09:14:09.422Z,31.97
2023-10-07T09:16:36.364Z,30.30
2023-10-07T09:19:14.260Z,31.23
2023-10-07T09:21:45.983Z,31.77
2023-10-07T09:24:25.121Z,31.13
2023-10-07T09:26:58.989Z,30.48
2023-10-07T09:29:27.420Z,27.94
2023-10-07T09:32:08.949Z,29.43
2023-10-07T09:34:49.085Z,30.42
2023-10-07T09:37:23.125Z,26.93
2023-10-07T09:39:56.807Z,27.85
2023-10-07T09:42:37.780Z,28.28
2023-10-07T09:45:09.835Z,28.35
2023-10-07T09:47:39.741Z,28.11
2023-10-07T09:50:27.534Z,27.28
2023-10-07T09:53:18.748Z,26.72
2023-10-07T09:56:30.176Z,27.03
2023-10-07T09:59:36.579Z,27.04
2023-10-07T10:02:44.488Z,28.64
2023-10-07T10:05:36.464Z,29.12
2023-10-07T10:08:22.693Z,28.32
2023-10-07T10:10:51.176Z,26.41
2023-10-07T10:13:30.239Z,26.33
2023-10-07T10:16:05.624Z,25.50
2023-10-07T10:18:41.619Z,26.88
2023-10-07T10:21:13.887Z,24.95
2023-10-07T10:23:42.460Z,24.99
2023-10-07T10:26:26.058Z,24.36
2023-10-07T10:29:13.582Z,24.07
2023-10-07T10:31:45.123Z,23.03
2023-10-07T10:34:16.088Z,22.04
2023-10-07T10:36:49.968Z,21.69
2023-10-07T10:42:02.397Z,20.24
2023-10-07T10:44:36.950Z,20.51
2023-10-07T10:47:03.538Z,20.26
2023-10-07T10:49:31.831Z,19.53
2023-10-07T10:52:01.039Z,21.22
2023-10-07T10:54:27.632Z,20.02
2023-10-07T10:57:01.693Z,19.54
2023-10-07T10:59:38.715Z,18.89
2023-10-07T11:02:06.531Z,18.09
2023-10-07T11:04:33.387Z,18.33
2023-10-07T11:07:01.271Z,18.77
2023-10-07T11:09:37.053Z,18.49
2023-10-07T11:12:10.782Z,17.20
2023-10-07T11:14:39.573Z,17.69
2023-10-07T11:17:07.138Z,18.20
2023-10-07T11:19:41.677Z,17.10
2023-10-07T11:22:08.450Z,20.66
2023-10-07T11:24:36.357Z,20.63
2023-10-07T11:27:03.933Z,18.69
2023-10-07T11:29:33.796Z,17.42
2023-10-07T11:32:01.830Z,17.47
2023-10-07T11:34:37.589Z,18.33
2023-10-07T11:37:15.227Z,18.08
2023-10-07T11:39:46.074Z,20.62
2023-10-07T11:42:21.640Z,18.51
2023-10-07T11:44:57.818Z,17.58
2023-10-07T11:47:25.862Z,17.49
2023-10-07T11:49:52.819Z,16.65
2023-10-07T11:52:22.876Z,16.61
2023-10-07T11:54:50.158Z,16.62
2023-10-07T11:57:21.113Z,17.36
2023-10-07T11:59:47.802Z,16.93
2023-10-07T12:02:16.219Z,17.89
2023-10-07T12:04:50.166Z,18.08
2023-10-07T12:07:18.035Z,16.96
2023-10-07T12:09:48.369Z,17.62
2023-10-07T12:12:16.385Z,18.48
2023-10-07T12:14:43.184Z,17.82
2023-10-07T12:17:09.980Z,17.38
2023-10-07T12:19:40.445Z,16.89
2023-10-07T12:22:08.026Z,16.67
2023-10-07T12:24:35.778Z,16.19
2023-10-07T12:27:03.239Z,15.95
2023-10-07T12:29:30.127Z,16.28
2023-10-07T12:31:57.638Z,15.77
2023-10-07T12:34:25.224Z,15.43
2023-10-07T12:36:55.001Z,15.63
2023-10-07T12:39:24.421Z,15.71
2023-10-07T12:41:50.984Z,17.97
2023-10-07T12:44:18.149Z,16.71
2023-10-07T12:46:45.097Z,17.00
2023-10-07T12:49:15.245Z,16.72
2023-10-07T12:51:43.767Z,16.79
2023-10-07T12:54:11.272Z,16.74
2023-10-07T12:56:44.226Z,16.92
2023-10-07T12:59:19.909Z,16.94
2023-10-07T13:01:51.687Z,17.63
2023-10-07T13:04:26.810Z,17.95
2023-10-07T13:07:02.287Z,18.27
2023-10-07T13:09:32.975Z,20.17
2023-10-07T13:12:00.648Z,18.89
2023-10-07T13:14:30.387Z,19.57
2023-10-07T13:17:00.774Z,19.29
2023-10-07T13:19:28.085Z,19.64
2023-10-07T13:21:56.533Z,19.32
2023-10-07T13:24:23.626Z,19.10
2023-10-07T13:26:50.941Z,20.40
2023-10-07T13:29:17.642Z,19.56
2023-10-07T13:31:45.065Z,19.68
2023-10-07T13:34:12.169Z,19.19
2023-10-07T13:36:40.241Z,19.27
2023-10-07T13:39:16.829Z,18.57
2023-10-07T13:41:47.633Z,18.32
2023-10-07T13:44:16.106Z,18.58
2023-10-07T13:46:43.495Z,17.94
2023-10-07T13:49:17.038Z,17.72
2023-10-07T13:51:46.299Z,17.78
2023-10-07T13:54:23.738Z,19.40
2023-10-07T13:56:58.650Z,19.59
2023-10-07T13:59:26.340Z,19.63
2023-10-07T14:01:54.032Z,18.24
2023-10-07T14:04:21.130Z,19.02
2023-10-07T14:06:55.914Z,18.66
2023-10-07T14:09:26.550Z,20.04
2023-10-07T14:11:56.009Z,20.79
2023-10-07T14:14:23.543Z,21.48
2023-10-07T14:16:57.003Z,21.42
2023-10-07T14:19:26.274Z,21.21
2023-10-07T14:21:53.895Z,22.12
2023-10-07T14:24:21.671Z,22.18
2023-10-07T14:26:49.667Z,22.27
2023-10-07T14:29:16.978Z,21.80
2023-10-07T14:31:45.213Z,22.92
2023-10-07T14:34:13.331Z,21.01
2023-10-07T14:36:41.425Z,20.60
2023-10-07T14:39:13.955Z,20.59
2023-10-07T14:41:42.667Z,20.33
2023-10-07T14:44:10.198Z,21.03
2023-10-07T14:46:43.642Z,20.84
2023-10-07T14:49:10.872Z,21.69
2023-10-07T14:51:38.115Z,22.06
2023-10-07T14:54:05.160Z,22.01
2023-10-07T14:56:31.803Z,23.53
2023-10-07T14:59:09.001Z,24.12
2023-10-07T15:01:35.932Z,24.92
2023-10-07T15:04:04.026Z,25.52
2023-10-07T15:06:34.045Z,24.48
2023-10-07T15:09:00.623Z,23.95
2023-10-07T15:11:27.228Z,24.23
2023-10-07T15:13:54.427Z,24.41
2023-10-07T15:16:22.194Z,23.65
2023-10-07T15:18:50.570Z,25.49
2023-10-07T15:21:18.592Z,23.58
2023-10-07T15:23:46.668Z,25.78
2023-10-07T15:26:20.066Z,24.85
2023-10-07T15:28:48.911Z,25.20
2023-10-07T15:31:24.660Z,25.80
2023-10-07T15:33:57.580Z,25.88
2023-10-07T15:36:25.337Z,27.13
2023-10-07T15:38:53.179Z,27.42
2023-10-07T15:41:23.197Z,26.73
2023-10-07T15:43:50.567Z,25.22
2023-10-07T15:46:18.432Z,27.56
2023-10-07T15:48:45.145Z,28.10
2023-10-07T15:51:12.422Z,28.89
2023-10-07T15:53:39.088Z,29.94
2023-10-07T15:56:11.104Z,30.13
2023-10-07T15:58:43.050Z,30.80
2023-10-07T16:01:12.188Z,30.75
2023-10-07T16:03:40.524Z,31.21
2023-10-07T16:06:08.984Z,31.39
2023-10-07T16:08:37.851Z,30.89
2023-10-07T16:11:09.475Z,31.79
2023-10-07T16:13:36.346Z,31.47
2023-10-07T16:16:11.915Z,31.57
2023-10-07T16:18:40.654Z,31.82
2023-10-07T16:21:15.329Z,29.68
2023-10-07T16:23:43.542Z,30.33
2023-10-07T16:26:13.646Z,31.38
2023-10-07T16:28:42.142Z,32.66
2023-10-07T16:31:10.253Z,34.22
2023-10-07T16:33:37.661Z,35.49
2023-10-07T16:36:05.632Z,35.93
2023-10-07T16:38:35.130Z,35.92
2023-10-07T16:41:02.739Z,35.38
2023-10-07T16:43:34.065Z,34.91
2023-10-07T16:46:03.389Z,34.53
2023-10-07T16:48:31.366Z,34.19
2023-10-07T16:51:00.545Z,33.98
2023-10-07T16:53:27.828Z,33.68
2023-10-07T16:55:55.383Z,35.36
2023-10-07T16:58:22.019Z,35.52
2023-10-07T17:00:48.638Z,34.01
2023-10-07T17:03:15.315Z,33.64
2023-10-07T17:05:42.103Z,35.08
2023-10-07T17:08:08.777Z,36.37
2023-10-07T17:10:40.259Z,37.17
2023-10-07T17:13:07.568Z,38.00
2023-10-07T17:15:41.899Z,37.12
2023-10-07T17:18:12.615Z,37.63
2023-10-07T17:20:40.956Z,39.44
2023-10-07T17:23:08.686Z,39.42
2023-10-07T17:25:36.618Z,38.27
2023-10-07T17:28:04.689Z,39.62
2023-10-07T17:30:32.434Z,38.43
2023-10-07T17:33:03.072Z,38.69
2023-10-07T17:35:30.336Z,37.46
2023-10-07T17:37:57.613Z,38.55
2023-10-07T17:40:24.552Z,39.26
2023-10-07T17:42:52.910Z,37.61
2023-10-07T17:45:19.631Z,37.75
2023-10-07T17:47:49.392Z,38.72
2023-10-07T17:50:19.079Z,39.53
2023-10-07T17:52:47.441Z,40.31
2023-10-07T17:55:14.527Z,40.69
2023-10-07T17:57:42.715Z,41.58
2023-10-07T18:00:11.345Z,41.93
2023-10-07T18:02:38.601Z,42.56
2023-10-07T18:05:06.122Z,42.08
2023-10-07T18:07:33.542Z,42.86
2023-10-07T18:10:00.144Z,42.77
2023-10-07T18:12:30.540Z,43.16
2023-10-07T18:17:23.821Z,43.16
2023-10-07T18:19:50.422Z,42.12
2023-10-07T18:22:17.600Z,41.11
2023-10-07T18:24:44.527Z,38.87
2023-10-07T18:27:12.512Z,39.03
2023-10-07T18:29:40.593Z,40.69
2023-10-07T18:32:08.143Z,41.22
2023-10-07T18:34:34.751Z,39.76
2023-10-07T18:39:27.900Z,40.42
2023-10-07T18:41:54.512Z,39.89
2023-10-07T18:44:21.243Z,39.84
2023-10-07T18:46:48.241Z,41.60
2023-10-07T18:49:16.426Z,43.67
2023-10-07T18:51:43.134Z,44.44
2023-10-07T18:54:09.871Z,44.71
2023-10-07T18:56:36.912Z,44.96
2023-10-07T18:59:03.652Z,45.69
2023-10-07T19:01:30.312Z,46.56
2023-10-07T19:03:57.018Z,46.45
2023-10-07T19:06:24.481Z,46.96
2023-10-07T19:08:51.033Z,46.71
2023-10-07T19:11:18.992Z,46.22
2023-10-07T19:13:46.725Z,46.55
2023-10-07T19:16:16.088Z,45.92
2023-10-07T19:18:43.903Z,45.88
2023-10-07T19:21:13.353Z,46.28
2023-10-07T19:23:41.564Z,46.71
2023-10-07T19:26:11.896Z,47.43
2023-10-07T19:28:41.714Z,47.33
2023-10-07T19:31:13.851Z,47.40
2023-10-07T19:33:40.729Z,47.79
2023-10-07T19:36:08.669Z,47.48
2023-10-07T19:38:37.166Z,47.19
2023-10-07T19:41:03.990Z,47.04
2023-10-07T19:43:30.754Z,48.32
2023-10-07T19:45:57.289Z,48.88
2023-10-07T19:48:23.906Z,48.50
2023-10-07T19:50:57.914Z,47.36
2023-10-07T19:53:24.702Z,46.90
2023-10-07T19:55:51.276Z,47.28
2023-10-07T19:58:17.868Z,47.28
2023-10-07T20:00:45.319Z,46.99
2023-10-07T20:03:12.046Z,46.92
2023-10-07T20:05:39.367Z,48.02
2023-10-07T20:08:08.032Z,47.92
2023-10-07T20:10:34.825Z,47.92
2023-10-07T20:13:01.574Z,48.10
2023-10-07T20:15:28.253Z,47.98
2023-10-07T20:17:55.247Z,48.61
2023-10-07T20:20:22.028Z,49.52
2023-10-07T20:22:48.575Z,50.01
2023-10-07T20:25:15.050Z,49.75
2023-10-07T20:27:41.783Z,49.03
2023-10-07T20:30:08.600Z,48.25
2023-10-07T20:32:35.884Z,47.53
2023-10-07T20:35:09.612Z,46.96
2023-10-07T20:37:36.430Z,46.89
2023-10-07T20:40:05.587Z,47.38
2023-10-07T20:42:33.388Z,47.30
2023-10-07T20:45:00.353Z,47.89
2023-10-07T20:47:27.016Z,47.33
2023-10-07T20:49:53.851Z,47.52
2023-10-07T20:52:20.474Z,48.88
2023-10-07T20:54:47.009Z,49.64
2023-10-07T20:57:15.987Z,49.24
2023-10-07T20:59:43.220Z,50.74
2023-10-07T21:02:09.862Z,50.19
2023-10-07T21:04:36.822Z,50.12
2023-10-07T21:07:04.008Z,50.58
2023-10-07T21:09:30.640Z,50.59
2023-10-07T21:11:57.256Z,51.71
2023-10-07T21:14:23.816Z,51.66
2023-10-07T21:16:50.341Z,51.78
2023-10-07T21:19:16.820Z,52.80
2023-10-07T21:21:46.150Z,53.13
2023-10-07T21:24:12.678Z,53.01
2023-10-07T21:26:39.400Z,53.87
2023-10-07T21:29:08.832Z,53.24
2023-10-07T21:31:35.541Z,54.13
2023-10-07T21:34:03.624Z,51.42
2023-10-07T21:36:30.395Z,50.54
2023-10-07T21:38:57.122Z,50.54
2023-10-07T21:41:23.781Z,50.62
2023-10-07T21:43:50.407Z,50.50
2023-10-07T21:46:20.213Z,50.17
2023-10-07T21:48:47.358Z,49.96
2023-10-07T21:51:16.360Z,49.79
2023-10-07T21:53:42.964Z,52.00
2023-10-07T21:56:12.146Z,51.90
2023-10-07T21:58:38.853Z,50.64
2023-10-07T22:01:18.815Z,50.25
2023-10-07T22:03:49.014Z,49.96
2023-10-07T22:06:15.937Z,49.90
2023-10-07T22:08:43.371Z,49.59
2023-10-07T22:11:11.222Z,49.43
2023-10-07T22:13:38.875Z,48.70
2023-10-07T22:16:09.083Z,48.67
2023-10-07T22:18:35.919Z,48.18
2023-10-07T22:21:04.644Z,48.66
2023-10-07T22:23:31.654Z,48.75
2023-10-07T22:25:58.467Z,48.67
2023-10-07T22:28:27.745Z,49.18
2023-10-07T22:30:55.101Z,48.94
2023-10-07T22:33:23.393Z,49.57
2023-10-07T22:35:50.800Z,50.18
2023-10-07T22:38:19.285Z,49.78
2023-10-07T22:41:14.068Z,49.68
2023-10-07T22:43:40.643Z,49.66
2023-10-07T22:46:08.858Z,49.53
2023-10-07T22:48:36.858Z,49.62
2023-10-07T22:51:22.553Z,49.73
2023-10-07T22:54:02.722Z,49.55
2023-10-07T22:56:32.605Z,49.98
2023-10-07T22:59:02.916Z,50.04
2023-10-07T23:01:38.480Z,50.44
2023-10-07T23:04:16.720Z,51.18
2023-10-07T23:07:00.962Z,51.04
2023-10-07T23:09:30.220Z,50.81
2023-10-07T23:11:56.922Z,50.61
2023-10-07T23:14:27.101Z,50.80
2023-10-07T23:16:56.864Z,50.60
2023-10-07T23:19:25.012Z,51.18
2023-10-07T23:21:52.436Z,50.83
2023-10-07T23:24:37.926Z,51.57
2023-10-07T23:27:07.755Z,50.88
2023-10-07T23:29:58.837Z,51.42
2023-10-07T23:32:26.160Z,51.04
2023-10-07T23:35:00.958Z,50.97
2023-10-07T23:37:31.448Z,50.81
2023-10-07T23:40:12.151Z,50.90
2023-10-07T23:42:38.959Z,50.82
2023-10-07T23:45:08.626Z,50.43
2023-10-07T23:47:35.683Z,50.44
2023-10-07T23:50:02.537Z,50.68
2023-10-07T23:52:29.161Z,51.13
2023-10-07T23:54:58.897Z,50.76
2023-10-07T23:57:31.022Z,51.30
2023-10-07T23:59:58.772Z,51.57
